createdAt,value
2024-02-16T00:00:09.344Z,175.54
2024-02-16T00:01:09.322Z,173.25
2024-02-16T00:02:09.268Z,175.09
2024-02-16T00:03:09.312Z,177.20
2024-02-16T00:04:09.328Z,177.52
2024-02-16T00:05:09.538Z,177.03
2024-02-16T00:06:09.290Z,176.79
2024-02-16T00:07:09.341Z,176.83
2024-02-16T00:08:09.270Z,175.16
2024-02-16T00:09:09.254Z,174.92
2024-02-16T00:10:09.316Z,174.39
2024-02-16T00:11:09.253Z,174.83
2024-02-16T00:12:09.262Z,174.74
2024-02-16T00:13:09.261Z,175.51
2024-02-16T00:14:09.258Z,174.99
2024-02-16T00:15:09.357Z,173.30
2024-02-16T00:16:09.287Z,171.40
2024-02-16T00:17:09.298Z,170.57
2024-02-16T00:18:09.368Z,170.69
2024-02-16T00:19:09.380Z,169.50
2024-02-16T00:20:09.391Z,167.48
2024-02-16T00:21:09.431Z,169.15
2024-02-16T00:22:09.394Z,173.41
2024-02-16T00:23:09.372Z,172.64
2024-02-16T00:24:09.357Z,173.19
2024-02-16T00:25:09.388Z,173.21
2024-02-16T00:26:09.493Z,175.24
2024-02-16T00:27:09.595Z,175.63
2024-02-16T00:28:09.505Z,175.33
2024-02-16T00:29:09.533Z,175.17
2024-02-16T00:30:09.679Z,175.55
2024-02-16T00:31:09.769Z,175.55
2024-02-16T00:32:09.696Z,176.30
2024-02-16T00:33:09.918Z,176.75
2024-02-16T00:34:10.040Z,175.16
2024-02-16T00:35:10.068Z,176.25
2024-02-16T00:36:10.226Z,177.70
2024-02-16T00:37:10.041Z,177.91
2024-02-16T00:38:10.198Z,178.92
2024-02-16T00:39:10.194Z,178.94
2024-02-16T00:40:10.339Z,176.33
2024-02-16T00:41:10.276Z,174.27
2024-02-16T00:42:10.416Z,174.20
2024-02-16T00:43:10.384Z,172.30
2024-02-16T00:44:10.385Z,173.15
2024-02-16T00:45:10.630Z,173.76
2024-02-16T00:46:10.505Z,172.87
2024-02-16T00:47:10.501Z,170.77
2024-02-16T00:48:10.583Z,168.52
2024-02-16T00:49:10.665Z,167.55
2024-02-16T00:50:10.880Z,165.77
2024-02-16T00:51:10.812Z,164.38
2024-02-16T00:52:10.756Z,163.78
2024-02-16T00:53:10.844Z,162.64
2024-02-16T00:54:10.966Z,164.19
2024-02-16T00:55:10.992Z,163.87
2024-02-16T00:56:10.987Z,164.42
2024-02-16T00:57:11.136Z,165.12
2024-02-16T00:58:11.095Z,165.84
2024-02-16T00:59:11.107Z,166.24
2024-02-16T01:00:11.188Z,165.21
2024-02-16T01:01:11.125Z,164.16
2024-02-16T01:02:11.222Z,162.55
2024-02-16T01:03:11.256Z,159.15
2024-02-16T01:04:11.304Z,157.95
2024-02-16T01:05:11.789Z,156.98
2024-02-16T01:06:11.350Z,155.35
2024-02-16T01:07:11.416Z,154.38
2024-02-16T01:08:11.408Z,152.07
2024-02-16T01:09:11.419Z,150.63
2024-02-16T01:10:11.442Z,149.84
2024-02-16T01:11:11.525Z,149.37
2024-02-16T01:12:11.546Z,147.62
2024-02-16T01:13:11.487Z,145.62
2024-02-16T01:14:11.568Z,145.08
2024-02-16T01:15:11.668Z,144.59
2024-02-16T01:16:11.680Z,141.73
2024-02-16T01:17:11.657Z,140.57
2024-02-16T01:18:11.789Z,140.18
2024-02-16T01:19:11.902Z,138.09
2024-02-16T01:20:12.468Z,136.76
2024-02-16T01:21:11.877Z,135.47
2024-02-16T01:22:11.860Z,134.39
2024-02-16T01:23:11.877Z,134.85
2024-02-16T01:24:12.128Z,136.92
2024-02-16T01:25:12.000Z,137.58
2024-02-16T01:26:12.055Z,138.44
2024-02-16T01:27:12.097Z,140.14
2024-02-16T01:28:12.140Z,143.16
2024-02-16T01:29:12.163Z,147.03
2024-02-16T01:30:12.496Z,152.26
2024-02-16T01:31:12.262Z,154.43
2024-02-16T01:32:12.339Z,156.96
2024-02-16T01:33:12.430Z,163.18
2024-02-16T01:34:12.519Z,169.42
2024-02-16T01:35:12.681Z,171.73
2024-02-16T01:36:12.533Z,172.54
2024-02-16T01:37:12.582Z,172.70
2024-02-16T01:38:12.537Z,174.39
2024-02-16T01:39:12.765Z,173.85
2024-02-16T01:40:12.864Z,172.00
2024-02-16T01:41:12.823Z,171.41
2024-02-16T01:42:12.834Z,170.83
2024-02-16T01:43:12.812Z,173.09
2024-02-16T01:44:12.831Z,173.33
2024-02-16T01:45:12.902Z,172.87
2024-02-16T01:46:12.936Z,171.72
2024-02-16T01:47:13.003Z,173.32
2024-02-16T01:48:13.216Z,173.80
2024-02-16T01:49:13.109Z,174.04
2024-02-16T01:50:13.110Z,173.20
2024-02-16T01:51:13.149Z,172.09
2024-02-16T01:52:13.132Z,172.48
2024-02-16T01:53:13.174Z,171.56
2024-02-16T01:54:13.271Z,170.66
2024-02-16T01:55:13.284Z,173.63
2024-02-16T01:56:13.249Z,173.74
2024-02-16T01:57:13.313Z,174.27
2024-02-16T01:58:13.272Z,174.14
2024-02-16T01:59:13.297Z,172.48
2024-02-16T02:00:13.346Z,171.67
2024-02-16T02:01:13.325Z,170.39
2024-02-16T02:02:13.289Z,169.27
2024-02-16T02:03:13.327Z,168.91
2024-02-16T02:04:13.316Z,167.97
2024-02-16T02:05:13.479Z,167.38
2024-02-16T02:06:13.478Z,167.36
2024-02-16T02:07:13.422Z,166.34
2024-02-16T02:08:13.347Z,166.71
2024-02-16T02:09:13.793Z,167.02
2024-02-16T02:10:13.418Z,171.99
2024-02-16T02:11:13.418Z,177.45
2024-02-16T02:12:13.514Z,180.67
2024-02-16T02:13:13.362Z,185.87
2024-02-16T02:14:13.429Z,189.33
2024-02-16T02:15:13.632Z,190.88
2024-02-16T02:16:13.632Z,191.42
2024-02-16T02:17:13.572Z,192.30
2024-02-16T02:18:14.686Z,190.50
2024-02-16T02:19:13.713Z,192.50
2024-02-16T02:20:13.809Z,187.77
2024-02-16T02:21:13.676Z,179.87
2024-02-16T02:22:13.721Z,177.84
2024-02-16T02:23:13.854Z,177.54
2024-02-16T02:24:13.889Z,178.21
2024-02-16T02:25:13.885Z,178.62
2024-02-16T02:26:13.900Z,178.82
2024-02-16T02:27:14.023Z,178.57
2024-02-16T02:28:13.996Z,177.16
2024-02-16T02:29:14.036Z,175.61
2024-02-16T02:30:14.242Z,173.91
2024-02-16T02:31:14.132Z,173.73
2024-02-16T02:32:14.239Z,171.82
2024-02-16T02:33:14.370Z,170.00
2024-02-16T02:34:14.332Z,167.75
2024-02-16T02:35:14.406Z,165.30
2024-02-16T02:36:14.526Z,164.52
2024-02-16T02:37:14.379Z,162.59
2024-02-16T02:38:14.461Z,162.16
2024-02-16T02:39:14.428Z,162.96
2024-02-16T02:40:15.025Z,163.07
2024-02-16T02:41:14.472Z,161.87
2024-02-16T02:42:14.570Z,161.78
2024-02-16T02:43:14.532Z,162.40
2024-02-16T02:44:14.535Z,163.44
2024-02-16T02:45:14.775Z,162.46
2024-02-16T02:46:14.655Z,163.06
2024-02-16T02:47:14.710Z,163.63
2024-02-16T02:48:14.976Z,165.50
2024-02-16T02:49:14.928Z,166.77
2024-02-16T02:50:14.883Z,169.39
2024-02-16T02:51:14.968Z,170.09
2024-02-16T02:52:15.051Z,171.48
2024-02-16T02:53:15.068Z,172.08
2024-02-16T02:54:15.145Z,173.16
2024-02-16T02:55:15.217Z,173.99
2024-02-16T02:56:15.211Z,175.31
2024-02-16T02:57:15.270Z,179.07
2024-02-16T02:58:15.258Z,182.55
2024-02-16T02:59:15.230Z,184.22
2024-02-16T03:00:15.484Z,184.55
2024-02-16T03:01:15.465Z,184.38
2024-02-16T03:02:15.495Z,183.64
2024-02-16T03:03:15.572Z,183.79
2024-02-16T03:04:15.625Z,183.76
2024-02-16T03:05:15.506Z,184.80
2024-02-16T03:06:15.615Z,186.71
2024-02-16T03:07:15.644Z,187.83
2024-02-16T03:08:15.717Z,188.59
2024-02-16T03:09:15.736Z,189.11
2024-02-16T03:10:15.594Z,190.05
2024-02-16T03:11:15.685Z,191.08
2024-02-16T03:12:15.809Z,191.85
2024-02-16T03:13:15.710Z,191.94
2024-02-16T03:14:15.758Z,192.09
2024-02-16T03:15:15.904Z,191.53
2024-02-16T03:16:15.856Z,190.60
2024-02-16T03:17:15.852Z,190.36
2024-02-16T03:18:16.085Z,190.94
2024-02-16T03:19:16.044Z,193.26
2024-02-16T03:20:16.064Z,194.00
2024-02-16T03:21:16.075Z,194.85
2024-02-16T03:22:16.124Z,195.91
2024-02-16T03:23:16.119Z,196.81
2024-02-16T03:24:16.147Z,197.03
2024-02-16T03:25:16.427Z,197.62
2024-02-16T03:26:16.327Z,198.30
2024-02-16T03:27:16.409Z,197.50
2024-02-16T03:28:16.376Z,198.48
2024-02-16T03:29:16.458Z,198.78
2024-02-16T03:30:16.536Z,198.04
2024-02-16T03:31:16.475Z,198.01
2024-02-16T03:32:16.546Z,197.34
2024-02-16T03:33:16.610Z,197.95
2024-02-16T03:34:16.923Z,197.09
2024-02-16T03:35:16.608Z,196.39
2024-02-16T03:36:16.758Z,197.13
2024-02-16T03:37:16.629Z,197.92
2024-02-16T03:38:16.627Z,196.80
2024-02-16T03:39:16.761Z,196.52
2024-02-16T03:40:16.719Z,195.59
2024-02-16T03:41:16.762Z,195.96
2024-02-16T03:42:16.883Z,193.78
2024-02-16T03:43:16.870Z,194.29
2024-02-16T03:44:16.883Z,196.02
2024-02-16T03:45:17.011Z,196.93
2024-02-16T03:46:16.920Z,197.38
2024-02-16T03:47:18.030Z,197.39
2024-02-16T03:48:17.251Z,197.25
2024-02-16T03:49:17.097Z,197.54
2024-02-16T03:50:16.926Z,195.74
2024-02-16T03:51:17.002Z,193.84
2024-02-16T03:52:16.920Z,192.14
2024-02-16T03:53:16.944Z,190.00
2024-02-16T03:54:17.041Z,187.29
2024-02-16T03:55:16.969Z,186.00
2024-02-16T03:56:16.947Z,187.59
2024-02-16T03:57:17.004Z,186.18
2024-02-16T03:58:16.982Z,186.07
2024-02-16T03:59:16.952Z,185.44
2024-02-16T04:00:17.074Z,185.74
2024-02-16T04:01:17.102Z,184.95
2024-02-16T04:02:16.918Z,185.89
2024-02-16T04:03:16.921Z,185.16
2024-02-16T04:04:16.981Z,186.86
2024-02-16T04:05:17.508Z,187.30
2024-02-16T04:06:17.045Z,186.98
2024-02-16T04:07:17.057Z,185.93
2024-02-16T04:08:17.037Z,184.59
2024-02-16T04:09:17.103Z,185.06
2024-02-16T04:10:17.187Z,184.91
2024-02-16T04:11:17.219Z,184.92
2024-02-16T04:12:17.185Z,186.28
2024-02-16T04:13:17.230Z,187.06
2024-02-16T04:14:17.246Z,186.93
2024-02-16T04:15:17.340Z,186.77
2024-02-16T04:16:17.298Z,185.21
2024-02-16T04:17:17.273Z,187.69
2024-02-16T04:18:17.390Z,193.68
2024-02-16T04:19:17.453Z,195.78
2024-02-16T04:20:17.425Z,192.96
2024-02-16T04:21:17.429Z,187.63
2024-02-16T04:22:17.462Z,184.73
2024-02-16T04:23:17.542Z,185.45
2024-02-16T04:24:17.619Z,185.09
2024-02-16T04:25:17.618Z,180.47
2024-02-16T04:26:17.648Z,174.12
2024-02-16T04:27:17.745Z,171.77
2024-02-16T04:28:17.734Z,170.81
2024-02-16T04:29:17.780Z,170.71
2024-02-16T04:30:17.860Z,172.66
2024-02-16T04:31:17.828Z,174.46
2024-02-16T04:32:17.839Z,176.04
2024-02-16T04:33:18.116Z,177.46
2024-02-16T04:34:18.059Z,178.62
2024-02-16T04:35:18.168Z,179.47
2024-02-16T04:36:18.028Z,180.19
2024-02-16T04:37:18.076Z,180.94
2024-02-16T04:38:18.088Z,183.51
2024-02-16T04:39:18.177Z,188.70
2024-02-16T04:40:18.221Z,194.24
2024-02-16T04:41:18.287Z,198.11
2024-02-16T04:42:18.331Z,199.15
2024-02-16T04:43:18.220Z,197.65
2024-02-16T04:44:18.299Z,194.47
2024-02-16T04:45:18.490Z,191.81
2024-02-16T04:46:18.340Z,189.77
2024-02-16T04:47:18.433Z,188.84
2024-02-16T04:48:18.559Z,188.23
2024-02-16T04:49:18.669Z,189.89
2024-02-16T04:50:18.518Z,189.81
2024-02-16T04:51:18.538Z,190.48
2024-02-16T04:52:18.563Z,191.70
2024-02-16T04:53:18.625Z,193.36
2024-02-16T04:54:18.672Z,192.77
2024-02-16T04:55:18.832Z,193.08
2024-02-16T04:56:18.780Z,194.11
2024-02-16T04:57:18.748Z,193.34
2024-02-16T04:58:18.757Z,193.19
2024-02-16T04:59:18.827Z,193.05
2024-02-16T05:00:18.957Z,192.55
2024-02-16T05:01:18.946Z,191.57
2024-02-16T05:02:26.466Z,50.00
2024-02-16T05:03:26.578Z,50.00
2024-02-16T05:04:26.506Z,50.00
2024-02-16T05:05:26.587Z,50.00
2024-02-16T05:06:26.662Z,50.00
2024-02-16T05:07:26.531Z,53.38
2024-02-16T05:08:26.562Z,53.37
2024-02-16T05:09:26.559Z,55.05
2024-02-16T05:10:26.660Z,56.99
2024-02-16T05:11:26.639Z,54.04
2024-02-16T05:12:26.582Z,57.35
2024-02-16T05:13:26.513Z,61.30
2024-02-16T05:14:26.600Z,69.07
2024-02-16T05:15:26.579Z,71.59
2024-02-16T05:16:26.528Z,75.49
2024-02-16T05:17:26.650Z,76.22
2024-02-16T05:18:26.695Z,79.85
2024-02-16T05:19:26.692Z,78.16
2024-02-16T05:20:26.657Z,77.50
2024-02-16T05:21:26.617Z,77.47
2024-02-16T05:22:26.606Z,73.25
2024-02-16T05:23:26.466Z,74.76
2024-02-16T05:24:26.538Z,72.23
2024-02-16T05:25:26.599Z,75.58
2024-02-16T05:26:26.510Z,76.16
2024-02-16T05:27:26.609Z,79.88
2024-02-16T05:28:26.525Z,85.29
2024-02-16T05:29:26.537Z,87.33
2024-02-16T05:30:26.693Z,86.51
2024-02-16T05:31:26.541Z,87.90
2024-02-16T05:32:26.595Z,87.89
2024-02-16T05:33:26.644Z,87.53
2024-02-16T05:34:26.671Z,88.32
2024-02-16T05:35:26.574Z,90.98
2024-02-16T05:36:26.602Z,93.43
2024-02-16T05:37:26.557Z,95.62
2024-02-16T05:38:26.627Z,96.91
2024-02-16T05:39:26.646Z,96.85
2024-02-16T05:40:26.630Z,95.81
2024-02-16T05:41:26.501Z,102.14
2024-02-16T05:42:26.558Z,106.98
2024-02-16T05:43:26.537Z,119.61
2024-02-16T05:44:26.631Z,126.17
2024-02-16T05:45:26.711Z,123.47
2024-02-16T05:46:26.539Z,118.63
2024-02-16T05:47:26.553Z,119.49
2024-02-16T05:48:26.628Z,119.80
2024-02-16T05:49:26.667Z,116.01
2024-02-16T05:50:26.768Z,114.18
2024-02-16T05:51:26.658Z,113.31
2024-02-16T05:52:26.784Z,117.04
2024-02-16T05:53:26.765Z,113.67
2024-02-16T05:54:26.812Z,110.26
2024-02-16T05:55:26.876Z,107.27
2024-02-16T05:56:26.920Z,103.91
2024-02-16T05:57:26.968Z,100.67
2024-02-16T05:58:26.920Z,98.21
2024-02-16T05:59:27.052Z,93.63
2024-02-16T06:00:27.600Z,90.87
2024-02-16T06:01:27.171Z,90.61
2024-02-16T06:02:27.160Z,89.80
2024-02-16T06:03:27.185Z,88.71
2024-02-16T06:04:27.321Z,89.17
2024-02-16T06:05:27.407Z,93.81
2024-02-16T06:06:27.424Z,96.58
2024-02-16T06:07:27.532Z,97.42
2024-02-16T06:08:30.617Z,99.02
2024-02-16T06:09:27.510Z,101.17
2024-02-16T06:10:27.454Z,96.91
2024-02-16T06:11:27.536Z,97.00
2024-02-16T06:12:27.489Z,96.65
2024-02-16T06:13:27.451Z,99.44
2024-02-16T06:14:27.457Z,102.32
2024-02-16T06:15:27.589Z,103.47
2024-02-16T06:16:27.485Z,101.27
2024-02-16T06:17:27.464Z,98.90
2024-02-16T06:18:27.571Z,100.17
2024-02-16T06:19:27.584Z,98.12
2024-02-16T06:20:27.503Z,96.13
2024-02-16T06:21:27.507Z,95.22
2024-02-16T06:22:27.461Z,94.04
2024-02-16T06:23:27.560Z,92.86
2024-02-16T06:24:27.530Z,95.09
2024-02-16T06:25:27.526Z,95.58
2024-02-16T06:26:27.522Z,95.69
2024-02-16T06:27:27.544Z,92.88
2024-02-16T06:28:27.425Z,90.09
2024-02-16T06:29:27.432Z,89.34
2024-02-16T06:30:27.593Z,87.50
2024-02-16T06:31:27.570Z,93.58
2024-02-16T06:32:27.590Z,95.16
2024-02-16T06:33:27.561Z,95.79
2024-02-16T06:34:27.588Z,96.03
2024-02-16T06:35:27.455Z,96.49
2024-02-16T06:36:27.575Z,97.00
2024-02-16T06:37:27.476Z,97.84
2024-02-16T06:38:27.508Z,94.84
2024-02-16T06:39:27.531Z,92.63
2024-02-16T06:40:27.573Z,91.28
2024-02-16T06:41:27.599Z,90.06
2024-02-16T06:42:27.591Z,89.03
2024-02-16T06:43:27.534Z,88.26
2024-02-16T06:44:27.539Z,86.48
2024-02-16T06:45:27.440Z,85.49
2024-02-16T06:46:27.623Z,88.77
2024-02-16T06:47:27.545Z,89.46
2024-02-16T06:48:27.611Z,91.14
2024-02-16T06:49:27.629Z,93.48
2024-02-16T06:50:27.544Z,96.15
2024-02-16T06:51:27.724Z,101.01
2024-02-16T06:52:27.504Z,105.79
2024-02-16T06:53:27.507Z,106.23
2024-02-16T06:54:27.556Z,110.70
2024-02-16T06:55:27.511Z,124.36
2024-02-16T06:56:27.574Z,129.87
2024-02-16T06:57:27.519Z,131.16
2024-02-16T06:58:27.569Z,126.82
2024-02-16T06:59:27.623Z,120.00
2024-02-16T07:00:27.658Z,113.71
2024-02-16T07:01:27.729Z,114.73
2024-02-16T07:02:27.674Z,114.86
2024-02-16T07:03:27.784Z,114.17
2024-02-16T07:04:27.850Z,110.04
2024-02-16T07:05:27.870Z,106.94
2024-02-16T07:06:28.072Z,99.05
2024-02-16T07:07:28.055Z,98.68
2024-02-16T07:08:28.002Z,96.31
2024-02-16T07:09:28.138Z,92.41
2024-02-16T07:10:28.068Z,88.98
2024-02-16T07:11:28.194Z,89.29
2024-02-16T07:12:28.212Z,90.58
2024-02-16T07:13:28.223Z,95.13
2024-02-16T07:14:28.240Z,92.97
2024-02-16T07:15:28.366Z,91.23
2024-02-16T07:16:28.313Z,93.30
2024-02-16T07:17:28.388Z,85.52
2024-02-16T07:18:28.636Z,75.08
2024-02-16T07:19:28.553Z,64.51
2024-02-16T07:20:28.511Z,53.95
2024-02-16T07:21:28.598Z,49.93
2024-02-16T07:22:28.511Z,49.79
2024-02-16T07:23:28.614Z,50.00
2024-02-16T07:24:28.726Z,50.00
2024-02-16T07:25:28.693Z,50.34
2024-02-16T07:26:29.164Z,49.53
2024-02-16T07:27:28.788Z,50.53
2024-02-16T07:28:28.774Z,51.75
2024-02-16T07:29:28.858Z,51.15
2024-02-16T07:30:36.875Z,58.89
2024-02-16T07:31:29.893Z,59.50
2024-02-16T07:32:28.896Z,63.45
2024-02-16T07:33:29.053Z,68.35
2024-02-16T07:34:28.973Z,79.91
2024-02-16T07:35:28.895Z,87.03
2024-02-16T07:36:28.953Z,78.24
2024-02-16T07:37:28.885Z,65.12
2024-02-16T07:38:28.858Z,64.62
2024-02-16T07:39:28.990Z,82.99
2024-02-16T07:40:28.835Z,89.77
2024-02-16T07:41:28.889Z,105.40
2024-02-16T07:42:28.995Z,104.26
2024-02-16T07:43:28.868Z,99.30
2024-02-16T07:44:28.876Z,87.90
2024-02-16T07:45:29.146Z,82.01
2024-02-16T07:46:28.915Z,88.05
2024-02-16T07:47:29.039Z,94.03
2024-02-16T07:48:29.123Z,102.23
2024-02-16T07:49:29.097Z,105.96
2024-02-16T07:50:29.113Z,107.03
2024-02-16T07:51:29.101Z,111.45
2024-02-16T07:52:29.148Z,121.93
2024-02-16T07:53:29.224Z,129.94
2024-02-16T07:54:29.256Z,123.58
2024-02-16T07:55:29.285Z,114.01
2024-02-16T07:56:29.414Z,104.40
2024-02-16T07:57:29.349Z,103.38
2024-02-16T07:58:29.353Z,114.79
2024-02-16T07:59:29.379Z,140.67
2024-02-16T08:00:29.459Z,147.86
2024-02-16T08:01:29.480Z,148.94
2024-02-16T08:02:29.462Z,139.33
2024-02-16T08:03:29.548Z,138.57
2024-02-16T08:04:29.547Z,147.16
2024-02-16T08:05:29.667Z,138.63
2024-02-16T08:06:29.943Z,143.98
2024-02-16T08:07:29.904Z,149.52
2024-02-16T08:08:29.636Z,161.42
2024-02-16T08:09:29.813Z,171.28
2024-02-16T08:10:29.757Z,167.23
2024-02-16T08:11:29.878Z,160.72
2024-02-16T08:12:29.841Z,146.36
2024-02-16T08:13:29.867Z,130.07
2024-02-16T08:14:29.944Z,106.92
2024-02-16T08:15:30.077Z,94.37
2024-02-16T08:16:30.021Z,87.31
2024-02-16T08:17:30.018Z,78.05
2024-02-16T08:18:30.210Z,71.66
2024-02-16T08:19:30.088Z,67.25
2024-02-16T08:20:30.078Z,62.43
2024-02-16T08:21:30.162Z,62.61
2024-02-16T08:22:30.102Z,63.36
2024-02-16T08:23:30.120Z,63.63
2024-02-16T08:24:30.206Z,56.76
2024-02-16T08:25:30.136Z,53.42
2024-02-16T08:26:30.144Z,50.48
2024-02-16T08:27:30.244Z,52.38
2024-02-16T08:28:30.073Z,49.19
2024-02-16T08:29:30.099Z,58.20
2024-02-16T08:30:30.295Z,69.68
2024-02-16T08:31:30.073Z,69.96
2024-02-16T08:32:30.111Z,64.59
2024-02-16T08:33:30.351Z,65.28
2024-02-16T08:34:30.276Z,76.53
2024-02-16T08:35:30.283Z,90.73
2024-02-16T08:36:30.374Z,105.16
2024-02-16T08:37:30.460Z,115.81
2024-02-16T08:38:30.519Z,99.51
2024-02-16T08:39:30.469Z,74.72
2024-02-16T08:40:30.429Z,45.91
2024-02-16T08:41:30.561Z,37.30
2024-02-16T08:42:30.595Z,50.00
2024-02-16T08:43:30.572Z,56.68
2024-02-16T08:44:30.553Z,59.64
2024-02-16T08:45:30.735Z,68.84
2024-02-16T08:46:30.915Z,87.01
2024-02-16T08:47:30.826Z,95.29
2024-02-16T08:48:30.959Z,98.55
2024-02-16T08:49:30.860Z,95.12
2024-02-16T08:50:30.804Z,83.82
2024-02-16T08:51:31.082Z,84.58
2024-02-16T08:52:30.918Z,96.06
2024-02-16T08:53:30.959Z,116.86
2024-02-16T08:54:31.096Z,127.31
2024-02-16T08:55:31.157Z,121.60
2024-02-16T08:56:31.667Z,121.82
2024-02-16T08:57:31.312Z,115.43
2024-02-16T08:58:31.261Z,108.37
2024-02-16T08:59:31.287Z,111.49
2024-02-16T09:00:31.507Z,99.78
2024-02-16T09:01:31.411Z,92.69
2024-02-16T09:02:31.415Z,93.70
2024-02-16T09:03:31.532Z,97.93
2024-02-16T09:04:31.457Z,99.06
2024-02-16T09:05:31.723Z,89.23
2024-02-16T09:06:31.823Z,86.99
2024-02-16T09:07:31.619Z,84.35
2024-02-16T09:08:31.640Z,84.52
2024-02-16T09:09:31.723Z,76.01
2024-02-16T09:10:31.805Z,69.43
2024-02-16T09:11:31.809Z,65.35
2024-02-16T09:12:31.808Z,62.44
2024-02-16T09:13:33.912Z,63.56
2024-02-16T09:14:31.651Z,53.63
2024-02-16T09:15:31.754Z,53.89
2024-02-16T09:16:31.716Z,54.14
2024-02-16T09:17:31.701Z,51.12
2024-02-16T09:18:31.769Z,56.67
2024-02-16T09:19:31.787Z,66.25
2024-02-16T09:20:32.106Z,62.56
2024-02-16T09:21:31.932Z,58.69
2024-02-16T09:23:31.697Z,49.40
2024-02-16T09:24:31.821Z,50.86
2024-02-16T09:25:31.662Z,56.54
2024-02-16T09:26:31.869Z,59.25
2024-02-16T09:27:31.732Z,63.55
2024-02-16T09:28:31.688Z,71.47
2024-02-16T09:29:31.660Z,76.34
2024-02-16T09:30:31.747Z,73.06
2024-02-16T09:31:31.696Z,69.52
2024-02-16T09:32:31.696Z,63.25
2024-02-16T09:33:31.852Z,56.90
2024-02-16T09:34:31.840Z,52.69
2024-02-16T09:35:31.726Z,52.73
2024-02-16T09:36:31.938Z,50.00
2024-02-16T09:37:31.702Z,43.10
2024-02-16T09:38:31.728Z,44.73
2024-02-16T09:39:31.740Z,56.79
2024-02-16T09:40:31.689Z,55.10
2024-02-16T09:41:31.760Z,55.06
2024-02-16T09:42:31.797Z,50.00
2024-02-16T09:43:31.709Z,58.96
2024-02-16T09:44:31.786Z,52.09
2024-02-16T09:45:31.793Z,63.97
2024-02-16T09:46:31.804Z,61.65
2024-02-16T09:47:31.800Z,50.00
2024-02-16T09:48:31.942Z,53.47
2024-02-16T09:49:38.985Z,61.37
2024-02-16T09:50:32.946Z,61.65
2024-02-16T09:51:31.887Z,50.48
2024-02-16T09:52:31.714Z,27.91
2024-02-16T09:53:31.794Z,0.00
2024-02-16T09:54:31.736Z,0.00
2024-02-16T09:55:31.718Z,28.43
2024-02-16T09:56:31.787Z,60.48
2024-02-16T09:57:31.890Z,81.72
2024-02-16T09:58:31.789Z,78.70
2024-02-16T09:59:31.781Z,80.70
2024-02-16T10:00:31.876Z,93.12
2024-02-16T10:01:31.822Z,100.09
2024-02-16T10:02:31.836Z,103.28
2024-02-16T10:03:31.885Z,94.90
2024-02-16T10:04:35.652Z,89.27
2024-02-16T10:05:32.878Z,82.11
2024-02-16T10:06:31.867Z,77.45
2024-02-16T10:07:31.915Z,77.62
2024-02-16T10:08:31.811Z,78.79
2024-02-16T10:09:31.933Z,76.60
2024-02-16T10:10:31.824Z,71.26
2024-02-16T10:11:32.050Z,65.25
2024-02-16T10:12:31.938Z,62.02
2024-02-16T10:13:31.860Z,28.57
2024-02-16T10:14:31.878Z,34.51
2024-02-16T10:15:31.893Z,54.51
2024-02-16T10:16:31.878Z,52.34
2024-02-16T10:17:31.970Z,69.07
2024-02-16T10:18:32.147Z,77.57
2024-02-16T10:19:31.991Z,71.70
2024-02-16T10:20:31.967Z,76.58
2024-02-16T10:21:32.349Z,72.13
2024-02-16T10:22:47.168Z,75.83
2024-02-16T10:24:32.052Z,76.01
2024-02-16T10:25:33.484Z,76.18
2024-02-16T10:26:32.075Z,79.42
2024-02-16T10:27:32.077Z,88.13
2024-02-16T10:28:31.965Z,90.91
2024-02-16T10:29:31.975Z,87.66
2024-02-16T10:30:32.058Z,93.83
2024-02-16T10:31:32.206Z,102.17
2024-02-16T10:32:32.025Z,88.08
2024-02-16T10:33:32.153Z,76.32
2024-02-16T10:34:32.086Z,73.66
2024-02-16T10:35:31.999Z,78.19
2024-02-16T10:36:32.156Z,78.40
2024-02-16T10:37:32.038Z,84.06
2024-02-16T10:38:32.036Z,88.77
2024-02-16T10:39:32.117Z,78.04
2024-02-16T10:40:32.073Z,80.66
2024-02-16T10:41:32.084Z,77.46
2024-02-16T10:42:32.096Z,74.08
2024-02-16T10:43:32.174Z,59.70
2024-02-16T10:44:32.055Z,49.14
2024-02-16T10:45:32.153Z,51.08
2024-02-16T10:46:32.068Z,55.65
2024-02-16T10:47:32.099Z,50.56
2024-02-16T10:48:32.192Z,37.77
2024-02-16T10:49:32.298Z,23.10
2024-02-16T10:50:32.186Z,25.27
2024-02-16T10:51:32.113Z,35.54
2024-02-16T10:52:32.113Z,53.67
2024-02-16T10:53:32.130Z,49.82
2024-02-16T10:54:32.073Z,52.59
2024-02-16T10:55:32.086Z,49.59
2024-02-16T10:56:32.165Z,51.22
2024-02-16T10:57:32.154Z,52.95
2024-02-16T10:58:32.074Z,57.16
2024-02-16T10:59:32.093Z,50.00
2024-02-16T11:00:32.406Z,54.12
2024-02-16T11:01:32.251Z,49.78
2024-02-16T11:02:32.336Z,50.83
2024-02-16T11:03:33.296Z,47.01
2024-02-16T11:04:32.390Z,49.69
2024-02-16T11:05:32.360Z,50.55
2024-02-16T11:06:32.498Z,41.27
2024-02-16T11:07:32.506Z,58.21
2024-02-16T11:08:32.458Z,79.16
2024-02-16T11:09:32.540Z,83.89
2024-02-16T11:10:33.662Z,63.85
2024-02-16T11:11:32.805Z,55.95
2024-02-16T11:12:32.732Z,72.49
2024-02-16T11:13:32.713Z,62.36
2024-02-16T11:14:32.761Z,49.46
2024-02-16T11:15:32.804Z,50.06
2024-02-16T11:16:32.903Z,48.06
2024-02-16T11:17:32.746Z,44.91
2024-02-16T11:18:33.153Z,19.76
2024-02-16T11:19:32.953Z,8.75
2024-02-16T11:20:32.959Z,13.73
2024-02-16T11:21:33.000Z,23.75
2024-02-16T11:22:32.987Z,30.11
2024-02-16T11:23:32.975Z,47.56
2024-02-16T11:24:33.058Z,48.75
2024-02-16T11:25:33.020Z,49.52
2024-02-16T11:26:33.125Z,46.40
2024-02-16T11:27:33.270Z,50.00
2024-02-16T11:28:33.143Z,48.76
2024-02-16T11:29:33.154Z,43.73
2024-02-16T11:30:33.243Z,49.27
2024-02-16T11:31:33.217Z,52.66
2024-02-16T11:32:33.505Z,55.83
2024-02-16T11:33:33.522Z,50.62
2024-02-16T11:34:33.460Z,62.17
2024-02-16T11:35:33.363Z,60.87
2024-02-16T11:36:33.586Z,72.28
2024-02-16T11:37:33.526Z,79.99
2024-02-16T11:38:33.501Z,83.59
2024-02-16T11:39:33.605Z,68.09
2024-02-16T11:40:33.591Z,64.22
2024-02-16T11:41:34.022Z,57.06
2024-02-16T11:42:33.674Z,55.81
2024-02-16T11:43:33.646Z,50.00
2024-02-16T11:44:33.640Z,53.57
2024-02-16T11:45:33.735Z,50.12
2024-02-16T11:46:33.782Z,60.56
2024-02-16T11:47:33.823Z,56.46
2024-02-16T11:48:33.996Z,69.11
2024-02-16T11:49:33.926Z,80.07
2024-02-16T11:50:33.777Z,87.98
2024-02-16T11:51:34.083Z,85.83
2024-02-16T11:52:33.973Z,81.53
2024-02-16T11:53:34.025Z,76.34
2024-02-16T11:54:34.156Z,71.61
2024-02-16T11:55:34.144Z,80.70
2024-02-16T11:56:34.142Z,68.58
2024-02-16T11:57:34.402Z,52.60
2024-02-16T11:58:34.269Z,51.12
2024-02-16T11:59:34.322Z,53.73
2024-02-16T12:00:34.477Z,63.70
2024-02-16T12:01:34.553Z,67.36
2024-02-16T12:02:34.394Z,79.51
2024-02-16T12:03:34.546Z,61.90
2024-02-16T12:04:39.510Z,65.67
2024-02-16T12:05:35.536Z,54.38
2024-02-16T12:06:34.744Z,49.58
2024-02-16T12:07:34.715Z,42.39
2024-02-16T12:08:34.520Z,29.21
2024-02-16T12:09:34.713Z,10.02
2024-02-16T12:10:34.566Z,46.07
2024-02-16T12:11:34.668Z,45.06
2024-02-16T12:12:34.884Z,50.28
2024-02-16T12:13:34.541Z,53.00
2024-02-16T12:14:34.589Z,50.00
2024-02-16T12:15:34.617Z,49.89
2024-02-16T12:16:34.577Z,51.38
2024-02-16T12:17:34.585Z,52.41
2024-02-16T12:18:34.713Z,59.81
2024-02-16T12:19:34.601Z,63.12
2024-02-16T12:20:34.622Z,67.07
2024-02-16T12:21:34.655Z,68.69
2024-02-16T12:22:34.644Z,67.53
2024-02-16T12:23:34.715Z,73.28
2024-02-16T12:24:34.731Z,74.10
2024-02-16T12:25:34.750Z,72.21
2024-02-16T12:26:34.859Z,66.89
2024-02-16T12:27:35.010Z,82.37
2024-02-16T12:28:34.891Z,80.96
2024-02-16T12:29:34.967Z,75.89
2024-02-16T12:30:35.152Z,81.59
2024-02-16T12:31:35.018Z,68.86
2024-02-16T12:32:35.087Z,69.03
2024-02-16T12:33:35.238Z,69.92
2024-02-16T12:34:35.147Z,71.14
2024-02-16T12:35:35.056Z,70.82
2024-02-16T12:36:35.137Z,82.34
2024-02-16T12:37:35.054Z,99.57
2024-02-16T12:38:35.055Z,107.78
2024-02-16T12:39:35.148Z,124.28
2024-02-16T12:40:35.128Z,122.42
2024-02-16T12:41:35.077Z,124.43
2024-02-16T12:42:35.095Z,126.13